createdAt,value
2019-05-03T00:00:46.178Z,14.57
2019-05-03T00:03:12.470Z,14.54
2019-05-03T00:05:38.776Z,14.52
2019-05-03T00:08:05.169Z,14.52
2019-05-03T00:10:31.857Z,14.48
2019-05-03T00:12:57.798Z,14.42
2019-05-03T00:15:24.120Z,14.40
2019-05-03T00:17:50.422Z,14.37
2019-05-03T00:20:16.753Z,14.37
2019-05-03T00:22:43.055Z,14.34
2019-05-03T00:25:09.367Z,14.34
2019-05-03T00:27:35.690Z,14.35
2019-05-03T00:30:02.880Z,14.35
2019-05-03T00:32:28.360Z,14.30
2019-05-03T00:34:54.672Z,14.30
2019-05-03T00:37:22.097Z,14.27
2019-05-03T00:39:47.297Z,14.21
2019-05-03T00:42:13.646Z,14.21
2019-05-03T00:44:39.967Z,14.14
2019-05-03T00:47:06.272Z,14.13
2019-05-03T00:49:32.596Z,14.11
2019-05-03T00:51:58.895Z,14.12
2019-05-03T00:54:25.221Z,14.10
2019-05-03T00:56:52.254Z,14.06
2019-05-03T00:59:17.849Z,13.96
2019-05-03T01:01:44.158Z,14.02
2019-05-03T01:04:11.813Z,13.96
2019-05-03T01:06:36.851Z,13.92
2019-05-03T01:09:03.157Z,13.89
2019-05-03T01:11:29.479Z,13.89
2019-05-03T01:13:55.783Z,13.87
2019-05-03T01:16:22.678Z,13.90
2019-05-03T01:18:48.408Z,13.83
2019-05-03T01:21:14.738Z,13.79
2019-05-03T01:23:42.010Z,13.76
2019-05-03T01:26:07.358Z,13.77
2019-05-03T01:28:33.687Z,13.67
2019-05-03T01:30:59.992Z,13.63
2019-05-03T01:33:26.299Z,13.58
2019-05-03T01:35:52.631Z,13.54
2019-05-03T01:38:19.505Z,13.51
2019-05-03T01:40:45.263Z,13.45
2019-05-03T01:43:11.767Z,13.45
2019-05-03T01:45:37.884Z,13.42
2019-05-03T01:48:04.215Z,13.48
2019-05-03T01:50:32.013Z,13.47
2019-05-03T01:52:56.887Z,13.49
2019-05-03T01:55:23.193Z,13.46
2019-05-03T01:57:49.524Z,13.39
2019-05-03T02:00:15.829Z,13.39
2019-05-03T02:02:42.136Z,13.39
2019-05-03T02:05:08.455Z,13.35
2019-05-03T02:07:34.759Z,13.23
2019-05-03T02:10:02.799Z,13.22
2019-05-03T02:12:27.411Z,13.26
2019-05-03T02:14:53.714Z,13.29
2019-05-03T02:17:20.039Z,13.22
2019-05-03T02:19:46.345Z,13.11
2019-05-03T02:22:12.665Z,13.11
2019-05-03T02:24:38.994Z,13.13
2019-05-03T02:27:05.304Z,13.06
2019-05-03T02:29:32.555Z,13.02
2019-05-03T02:31:57.958Z,13.02
2019-05-03T02:34:24.290Z,13.00
2019-05-03T02:36:53.492Z,13.08
2019-05-03T02:39:16.920Z,13.04
2019-05-03T02:41:47.893Z,13.07
2019-05-03T02:44:09.559Z,13.08
2019-05-03T02:46:36.277Z,12.92
2019-05-03T02:49:02.183Z,12.76
2019-05-03T02:51:28.487Z,12.62
2019-05-03T02:53:57.059Z,12.57
2019-05-03T02:56:22.281Z,12.51
2019-05-03T02:58:47.436Z,12.60
2019-05-03T03:01:16.248Z,12.64
2019-05-03T03:03:40.070Z,12.58
2019-05-03T03:06:06.895Z,12.48
2019-05-03T03:08:33.406Z,12.38
2019-05-03T03:10:59.023Z,12.37
2019-05-03T03:13:25.603Z,12.39
2019-05-03T03:15:51.656Z,12.30
2019-05-03T03:18:17.956Z,12.24
2019-05-03T03:20:45.005Z,12.31
2019-05-03T03:23:14.267Z,12.47
2019-05-03T03:25:36.884Z,12.53
2019-05-03T03:28:05.307Z,12.61
2019-05-03T03:30:29.889Z,12.69
2019-05-03T03:32:57.709Z,12.63
2019-05-03T03:35:22.657Z,12.49
2019-05-03T03:37:48.543Z,12.41
2019-05-03T03:40:16.049Z,12.41
2019-05-03T03:42:41.164Z,12.49
2019-05-03T03:45:07.508Z,12.48
2019-05-03T03:47:35.846Z,12.49
2019-05-03T03:50:00.126Z,12.43
2019-05-03T03:52:26.435Z,12.44
2019-05-03T03:54:55.256Z,12.44
2019-05-03T03:57:19.060Z,12.47
2019-05-03T03:59:45.665Z,12.38
2019-05-03T04:02:11.686Z,12.46
2019-05-03T04:04:38.024Z,12.55
2019-05-03T04:07:06.631Z,12.63
2019-05-03T04:09:30.671Z,12.71
2019-05-03T04:11:57.090Z,12.81
2019-05-03T04:14:25.384Z,12.87
2019-05-03T04:16:49.626Z,12.84
2019-05-03T04:19:17.455Z,12.70
2019-05-03T04:21:42.262Z,12.65
2019-05-03T04:24:08.572Z,12.62
2019-05-03T04:26:35.786Z,12.57
2019-05-03T04:29:01.195Z,12.66
2019-05-03T04:31:27.522Z,12.71
2019-05-03T04:33:56.291Z,12.80
2019-05-03T04:36:20.158Z,12.75
2019-05-03T04:38:46.482Z,12.77
2019-05-03T04:41:15.669Z,12.81
2019-05-03T04:43:39.119Z,12.89
2019-05-03T04:46:06.562Z,12.94
2019-05-03T04:48:31.754Z,13.05
2019-05-03T04:50:58.056Z,13.44
2019-05-03T04:53:25.960Z,13.59
2019-05-03T04:55:50.704Z,13.81
2019-05-03T04:58:17.023Z,14.05
2019-05-03T05:00:46.287Z,14.20
2019-05-03T05:03:09.663Z,14.21
2019-05-03T05:05:36.461Z,14.05
2019-05-03T05:08:02.294Z,13.94
2019-05-03T05:10:28.620Z,13.87
2019-05-03T05:12:55.210Z,13.85
2019-05-03T05:15:21.248Z,13.91
2019-05-03T05:17:47.567Z,13.98
2019-05-03T05:20:14.483Z,14.06
2019-05-03T05:22:40.237Z,14.11
2019-05-03T05:25:06.543Z,14.09
2019-05-03T05:27:34.635Z,14.16
2019-05-03T05:29:59.182Z,14.25
2019-05-03T05:32:25.474Z,14.28
2019-05-03T05:34:51.828Z,14.36
2019-05-03T05:37:18.151Z,14.39
2019-05-03T05:39:44.788Z,14.45
2019-05-03T05:42:10.788Z,14.53
2019-05-03T05:44:37.100Z,14.57
2019-05-03T05:47:04.696Z,14.60
2019-05-03T05:49:29.720Z,14.66
2019-05-03T05:51:56.052Z,14.81
2019-05-03T05:54:22.352Z,15.02
2019-05-03T05:56:48.658Z,15.29
2019-05-03T05:59:15.008Z,15.39
2019-05-03T06:01:41.290Z,15.43
2019-05-03T06:04:09.934Z,15.50
2019-05-03T06:06:34.804Z,15.53
2019-05-03T06:09:00.245Z,15.59
2019-05-03T06:11:26.552Z,15.65
2019-05-03T06:13:54.516Z,15.70
2019-05-03T06:16:19.242Z,15.79
2019-05-03T06:18:45.544Z,15.91
2019-05-03T06:21:11.881Z,15.99
2019-05-03T06:23:38.184Z,16.10
2019-05-03T06:26:04.963Z,16.19
2019-05-03T06:28:30.819Z,16.27
2019-05-03T06:30:57.146Z,16.34
2019-05-03T06:33:24.492Z,16.43
2019-05-03T06:35:49.759Z,16.57
2019-05-03T06:38:16.081Z,16.66
2019-05-03T06:40:44.337Z,16.75
2019-05-03T06:43:12.646Z,16.82
2019-05-03T06:45:35.407Z,16.85
2019-05-03T06:48:01.349Z,16.95
2019-05-03T06:50:28.952Z,17.07
2019-05-03T06:52:54.820Z,17.16
2019-05-03T06:55:20.288Z,17.24
2019-05-03T06:57:49.569Z,17.32
2019-05-03T07:00:12.913Z,17.43
2019-05-03T07:02:39.279Z,17.55
2019-05-03T07:05:05.584Z,17.68
2019-05-03T07:07:31.906Z,17.80
2019-05-03T07:09:58.216Z,17.85
2019-05-03T07:12:25.004Z,17.96
2019-05-03T07:14:50.866Z,18.08
2019-05-03T07:17:17.175Z,18.16
2019-05-03T07:19:43.497Z,18.17
2019-05-03T07:22:09.803Z,18.31
2019-05-03T07:24:40.668Z,18.47
2019-05-03T07:27:02.471Z,18.58
2019-05-03T07:29:28.775Z,18.65
2019-05-03T07:31:55.098Z,18.72
2019-05-03T07:34:21.417Z,18.80
2019-05-03T07:36:47.721Z,18.92
2019-05-03T07:39:14.581Z,19.04
2019-05-03T07:41:40.357Z,19.03
2019-05-03T07:44:06.694Z,18.99
2019-05-03T07:46:34.741Z,18.95
2019-05-03T07:48:59.328Z,19.00
2019-05-03T07:51:25.633Z,19.06
2019-05-03T07:53:51.935Z,19.23
2019-05-03T07:56:18.273Z,19.39
2019-05-03T07:58:46.197Z,19.57
2019-05-03T08:01:10.922Z,19.66
2019-05-03T08:03:37.239Z,19.75
2019-05-03T08:06:04.769Z,19.85
2019-05-03T08:08:29.938Z,19.96
2019-05-03T08:10:56.242Z,20.03
2019-05-03T08:13:22.547Z,20.15
2019-05-03T08:15:49.008Z,20.29
2019-05-03T08:18:15.583Z,20.42
2019-05-03T08:20:41.679Z,20.48
2019-05-03T08:23:07.985Z,20.57
2019-05-03T08:25:35.463Z,20.65
2019-05-03T08:28:00.663Z,20.75
2019-05-03T08:30:27.107Z,20.84
2019-05-03T08:32:54.902Z,20.94
2019-05-03T08:35:19.867Z,20.98
2019-05-03T08:37:46.200Z,20.96
2019-05-03T08:40:12.497Z,21.03
2019-05-03T08:42:38.836Z,21.09
2019-05-03T08:45:07.906Z,21.21
2019-05-03T08:47:31.468Z,21.33
2019-05-03T08:49:57.775Z,21.44
2019-05-03T08:52:24.780Z,21.43
2019-05-03T08:54:50.495Z,21.45
2019-05-03T08:57:16.805Z,21.48
2019-05-03T08:59:45.773Z,21.50
2019-05-03T09:02:17.654Z,21.57
2019-05-03T09:04:42.682Z,21.63
2019-05-03T09:07:05.471Z,21.78
2019-05-03T09:09:31.680Z,21.89
2019-05-03T09:11:58.005Z,22.02
2019-05-03T09:14:24.566Z,22.14
2019-05-03T09:16:50.665Z,22.24
2019-05-03T09:19:16.978Z,22.36
2019-05-03T09:21:45.271Z,22.43
2019-05-03T09:24:09.642Z,22.49
2019-05-03T09:26:35.955Z,22.58
2019-05-03T09:29:02.273Z,22.67
2019-05-03T09:31:28.652Z,22.74
2019-05-03T09:33:55.108Z,22.81
2019-05-03T09:36:21.300Z,22.88
2019-05-03T09:38:47.608Z,22.90
2019-05-03T09:41:15.006Z,22.92
2019-05-03T09:43:40.240Z,22.97
2019-05-03T09:46:06.568Z,23.00
2019-05-03T09:48:34.672Z,23.01
2019-05-03T09:50:59.180Z,23.06
2019-05-03T09:53:25.695Z,23.08
2019-05-03T09:55:51.827Z,23.16
2019-05-03T09:58:18.199Z,23.23
2019-05-03T10:00:44.673Z,23.34
2019-05-03T10:03:10.788Z,23.44
2019-05-03T10:05:37.104Z,23.55
2019-05-03T10:08:05.105Z,23.57
2019-05-03T10:10:30.184Z,23.50
2019-05-03T10:12:56.500Z,23.60
2019-05-03T10:15:22.834Z,23.65
2019-05-03T10:17:49.150Z,23.71
2019-05-03T10:20:15.506Z,23.77
2019-05-03T10:22:41.793Z,23.82
2019-05-03T10:25:08.154Z,23.86
2019-05-03T10:27:34.757Z,23.89
2019-05-03T10:30:12.353Z,23.96
2019-05-03T10:32:27.269Z,24.04
2019-05-03T10:34:53.575Z,24.09
2019-05-03T10:37:19.909Z,24.06
2019-05-03T10:39:46.253Z,23.88
2019-05-03T10:42:12.560Z,23.61
2019-05-03T10:44:38.891Z,23.47
2019-05-03T10:47:05.594Z,23.48
2019-05-03T10:49:31.501Z,23.57
2019-05-03T10:51:57.827Z,23.68
2019-05-03T10:54:24.137Z,23.81
2019-05-03T10:56:50.464Z,23.96
2019-05-03T10:59:16.805Z,24.06
2019-05-03T11:01:45.128Z,24.16
2019-05-03T11:04:09.432Z,24.25
2019-05-03T11:06:35.765Z,24.27
2019-05-03T11:09:02.096Z,24.26
2019-05-03T11:11:28.414Z,24.28
2019-05-03T11:13:54.744Z,24.32
2019-05-03T11:16:21.057Z,24.37
2019-05-03T11:18:47.439Z,24.42
2019-05-03T11:21:14.440Z,24.44
2019-05-03T11:23:40.056Z,24.44
2019-05-03T11:26:06.361Z,24.44
2019-05-03T11:28:32.665Z,24.45
2019-05-03T11:31:02.271Z,24.45
2019-05-03T11:33:25.316Z,24.46
2019-05-03T11:35:51.649Z,24.50
2019-05-03T11:38:18.342Z,24.52
2019-05-03T11:40:45.484Z,24.56
2019-05-03T11:43:10.594Z,24.60
2019-05-03T11:45:36.919Z,24.64
2019-05-03T11:48:03.249Z,24.68
2019-05-03T11:50:29.597Z,24.72
2019-05-03T11:52:55.915Z,24.67
2019-05-03T11:55:22.272Z,24.58
2019-05-03T11:57:48.600Z,24.56
2019-05-03T12:00:14.922Z,24.56
2019-05-03T12:02:41.231Z,24.62
2019-05-03T12:05:07.558Z,24.63
2019-05-03T12:07:39.766Z,24.60
2019-05-03T12:10:00.282Z,24.62
2019-05-03T12:12:29.388Z,24.66
2019-05-03T12:14:54.796Z,24.68
2019-05-03T12:17:26.059Z,24.67
2019-05-03T12:19:47.374Z,24.64
2019-05-03T12:22:12.314Z,24.59
2019-05-03T12:24:38.819Z,24.57
2019-05-03T12:27:04.769Z,24.59
2019-05-03T12:29:30.812Z,24.59
2019-05-03T12:31:57.153Z,24.59
2019-05-03T12:34:25.621Z,24.60
2019-05-03T12:36:51.439Z,24.55
2019-05-03T12:39:26.302Z,24.48
2019-05-03T12:41:42.466Z,24.42
2019-05-03T12:44:08.774Z,24.43
2019-05-03T12:46:35.410Z,24.43
2019-05-03T12:49:01.458Z,24.40
2019-05-03T12:51:27.761Z,24.31
2019-05-03T12:53:55.171Z,24.25
2019-05-03T12:56:23.826Z,24.22
2019-05-03T12:58:46.777Z,24.21
2019-05-03T13:01:13.086Z,24.15
2019-05-03T13:03:39.415Z,24.15
2019-05-03T13:06:07.417Z,24.14
2019-05-03T13:08:32.044Z,24.08
2019-05-03T13:10:58.408Z,24.01
2019-05-03T13:13:25.009Z,23.95
2019-05-03T13:15:51.021Z,23.89
2019-05-03T13:18:17.351Z,23.82
2019-05-03T13:20:45.342Z,23.76
2019-05-03T13:23:12.822Z,23.74
2019-05-03T13:25:36.309Z,23.68
2019-05-03T13:28:02.623Z,23.67
2019-05-03T13:30:28.952Z,23.69
2019-05-03T13:32:55.261Z,23.68
2019-05-03T13:35:21.588Z,23.68
2019-05-03T13:37:47.897Z,23.73
2019-05-03T13:40:14.222Z,23.76
2019-05-03T13:42:53.048Z,23.73
2019-05-03T13:45:06.836Z,23.70
2019-05-03T13:47:34.924Z,23.63
2019-05-03T13:49:59.466Z,23.61
2019-05-03T13:52:25.801Z,23.61
2019-05-03T13:54:52.227Z,23.63
2019-05-03T13:57:18.517Z,23.65
2019-05-03T13:59:44.956Z,23.67
2019-05-03T14:02:15.543Z,23.78
2019-05-03T14:04:49.311Z,23.81
2019-05-03T14:07:04.657Z,23.74
2019-05-03T14:09:30.114Z,23.76
2019-05-03T14:11:56.421Z,23.76
2019-05-03T14:14:22.755Z,23.76
2019-05-03T14:16:49.066Z,23.74
2019-05-03T14:19:15.405Z,23.74
2019-05-03T14:21:41.710Z,23.78
2019-05-03T14:24:08.027Z,23.76
2019-05-03T14:26:35.115Z,23.74
2019-05-03T14:29:00.664Z,23.71
2019-05-03T14:31:26.990Z,23.69
2019-05-03T14:33:55.632Z,23.64
2019-05-03T14:36:19.619Z,23.60
2019-05-03T14:38:47.054Z,23.57
2019-05-03T14:41:14.690Z,23.51
2019-05-03T14:43:38.593Z,23.40
2019-05-03T14:46:05.619Z,23.37
2019-05-03T14:48:31.220Z,23.39
2019-05-03T14:50:57.599Z,23.36
2019-05-03T14:53:25.424Z,23.30
2019-05-03T14:55:50.182Z,23.14
2019-05-03T14:58:17.537Z,23.02
2019-05-03T15:00:45.048Z,22.95
2019-05-03T15:03:09.160Z,22.97
2019-05-03T15:05:35.498Z,22.99
2019-05-03T15:08:01.830Z,23.04
2019-05-03T15:10:28.138Z,23.06
2019-05-03T15:12:55.639Z,23.08
2019-05-03T15:15:20.765Z,23.00
2019-05-03T15:17:47.107Z,22.98
2019-05-03T15:20:14.762Z,22.96
2019-05-03T15:22:40.772Z,22.92
2019-05-03T15:25:09.230Z,22.90
2019-05-03T15:27:35.506Z,22.88
2019-05-03T15:30:04.847Z,22.88
2019-05-03T15:32:29.984Z,22.88
2019-05-03T15:34:56.316Z,22.90
2019-05-03T15:37:22.628Z,22.89
2019-05-03T15:39:48.956Z,22.89
2019-05-03T15:42:15.278Z,22.88
2019-05-03T15:44:41.588Z,22.85
2019-05-03T15:47:09.528Z,22.80
2019-05-03T15:49:35.670Z,22.78
2019-05-03T15:52:00.729Z,22.73
2019-05-03T15:54:26.983Z,22.71
2019-05-03T15:56:54.379Z,22.69
2019-05-03T15:59:19.623Z,22.64
2019-05-03T16:01:45.948Z,22.63
2019-05-03T16:04:14.229Z,22.63
2019-05-03T16:06:38.598Z,22.63
2019-05-03T16:09:04.915Z,22.62
2019-05-03T16:11:31.290Z,22.59
2019-05-03T16:13:58.447Z,22.57
2019-05-03T16:16:24.969Z,22.54
2019-05-03T16:18:51.034Z,22.52
2019-05-03T16:21:17.341Z,22.59
2019-05-03T16:23:46.357Z,22.70
2019-05-03T16:26:10.193Z,22.77
2019-05-03T16:28:36.530Z,22.82
2019-05-03T16:31:02.864Z,22.86
2019-05-03T16:33:29.257Z,22.87
2019-05-03T16:35:55.573Z,22.84
2019-05-03T16:38:21.915Z,22.80
2019-05-03T16:40:48.360Z,22.84
2019-05-03T16:43:16.224Z,22.74
2019-05-03T16:45:41.634Z,22.63
2019-05-03T16:48:07.934Z,22.54
2019-05-03T16:50:34.616Z,22.46
2019-05-03T16:53:00.568Z,22.41
2019-05-03T16:55:26.910Z,22.37
2019-05-03T16:57:54.819Z,22.33
2019-05-03T17:00:19.545Z,22.29
2019-05-03T17:02:45.888Z,22.26
2019-05-03T17:05:14.268Z,22.19
2019-05-03T17:07:38.535Z,22.17
2019-05-03T17:10:07.268Z,22.13
2019-05-03T17:12:31.190Z,22.09
2019-05-03T17:14:57.575Z,22.05
2019-05-03T17:17:25.196Z,22.00
2019-05-03T17:19:50.198Z,21.96
2019-05-03T17:22:17.444Z,21.90
2019-05-03T17:24:44.434Z,21.88
2019-05-03T17:27:09.184Z,21.87
2019-05-03T17:29:35.656Z,21.84
2019-05-03T17:32:01.984Z,21.78
2019-05-03T17:34:28.288Z,21.75
2019-05-03T17:36:54.663Z,21.70
2019-05-03T17:39:20.988Z,21.69
2019-05-03T17:41:47.299Z,21.63
2019-05-03T17:44:14.437Z,21.62
2019-05-03T17:46:39.951Z,21.62
2019-05-03T17:49:06.267Z,21.58
2019-05-03T17:51:32.590Z,21.55
2019-05-03T17:53:58.894Z,21.54
2019-05-03T17:56:25.236Z,21.47
2019-05-03T17:58:51.560Z,21.47
2019-05-03T18:01:17.882Z,21.44
2019-05-03T18:03:44.889Z,21.38
2019-05-03T18:06:10.526Z,21.35
2019-05-03T18:08:36.856Z,21.31
2019-05-03T18:11:04.539Z,21.29
2019-05-03T18:13:29.509Z,21.26
2019-05-03T18:15:55.820Z,21.26
2019-05-03T18:18:24.725Z,21.21
2019-05-03T18:20:48.464Z,21.20
2019-05-03T18:23:15.356Z,21.18
2019-05-03T18:25:41.188Z,21.17
2019-05-03T18:28:07.520Z,21.14
2019-05-03T18:30:34.894Z,21.09
2019-05-03T18:33:00.165Z,21.10
2019-05-03T18:35:26.475Z,21.06
2019-05-03T18:37:54.612Z,21.03
2019-05-03T18:40:19.125Z,20.99
2019-05-03T18:42:45.435Z,20.94
2019-05-03T18:45:11.766Z,20.92
2019-05-03T18:47:38.089Z,20.90
2019-05-03T18:50:04.428Z,20.88
2019-05-03T18:52:30.757Z,20.83
2019-05-03T18:54:58.195Z,20.80
2019-05-03T18:57:25.448Z,20.76
2019-05-03T18:59:50.026Z,20.77
2019-05-03T19:02:16.391Z,20.76
2019-05-03T19:04:45.035Z,20.76
2019-05-03T19:07:09.070Z,20.77
2019-05-03T19:09:35.405Z,20.72
2019-05-03T19:12:01.825Z,20.68
2019-05-03T19:14:28.092Z,20.62
2019-05-03T19:16:55.203Z,20.60
2019-05-03T19:19:21.528Z,20.60
2019-05-03T19:21:47.995Z,20.56
2019-05-03T19:24:15.194Z,20.56
2019-05-03T19:26:40.654Z,20.65
2019-05-03T19:29:07.031Z,20.65
2019-05-03T19:31:35.497Z,20.60
2019-05-03T19:33:59.669Z,20.51
2019-05-03T19:36:26.032Z,20.46
2019-05-03T19:38:54.515Z,20.41
2019-05-03T19:41:18.760Z,20.37
2019-05-03T19:43:45.097Z,20.31
2019-05-03T19:46:11.557Z,20.31
2019-05-03T19:48:38.107Z,20.31
2019-05-03T19:51:08.365Z,20.29
2019-05-03T19:53:35.958Z,20.27
2019-05-03T19:56:01.078Z,20.26
2019-05-03T19:58:27.401Z,20.24
2019-05-03T20:00:54.870Z,20.24
2019-05-03T20:03:20.045Z,20.20
2019-05-03T20:05:46.373Z,20.22
2019-05-03T20:08:12.682Z,20.21
2019-05-03T20:10:39.016Z,20.19
2019-05-03T20:13:05.316Z,20.19
2019-05-03T20:15:32.812Z,20.15
2019-05-03T20:18:00.252Z,20.15
2019-05-03T20:20:25.430Z,20.13
2019-05-03T20:22:51.795Z,20.00
2019-05-03T20:25:18.131Z,20.09
2019-05-03T20:27:44.657Z,20.08
2019-05-03T20:30:10.775Z,20.06
2019-05-03T20:32:37.105Z,20.04
2019-05-03T20:35:14.597Z,20.01
2019-05-03T20:37:29.757Z,19.97
2019-05-03T20:39:56.083Z,19.96
2019-05-03T20:42:24.278Z,19.95
2019-05-03T20:44:48.752Z,19.90
2019-05-03T20:47:15.052Z,19.89
2019-05-03T20:49:41.384Z,19.88
2019-05-03T20:52:07.688Z,19.88
2019-05-03T20:54:34.969Z,19.86
2019-05-03T20:57:00.335Z,19.87
2019-05-03T20:59:26.671Z,19.82
2019-05-03T21:01:54.601Z,19.80
2019-05-03T21:04:19.322Z,19.74
2019-05-03T21:06:45.729Z,19.68
2019-05-03T21:09:11.973Z,19.66
2019-05-03T21:11:38.284Z,19.67
2019-05-03T21:14:04.819Z,19.64
2019-05-03T21:16:30.934Z,19.61
2019-05-03T21:18:57.321Z,19.56
2019-05-03T21:21:25.170Z,19.59
2019-05-03T21:23:49.944Z,19.58
2019-05-03T21:26:16.755Z,19.61
2019-05-03T21:28:42.581Z,19.62
2019-05-03T21:31:08.910Z,19.60
2019-05-03T21:33:35.608Z,19.56
2019-05-03T21:36:01.545Z,19.51
2019-05-03T21:38:27.975Z,19.49
2019-05-03T21:40:54.660Z,19.45
2019-05-03T21:43:20.632Z,19.45
2019-05-03T21:45:46.941Z,19.44
2019-05-03T21:48:14.614Z,19.44
2019-05-03T21:50:39.572Z,19.43
2019-05-03T21:53:06.035Z,19.36
2019-05-03T21:55:32.223Z,19.29
2019-05-03T21:57:58.533Z,19.28
2019-05-03T22:00:24.878Z,19.23
2019-05-03T22:02:51.182Z,19.16
2019-05-03T22:05:17.509Z,19.15
2019-05-03T22:07:44.413Z,19.15
2019-05-03T22:10:10.140Z,19.13
2019-05-03T22:12:36.467Z,19.07
2019-05-03T22:15:02.775Z,19.01
2019-05-03T22:17:29.101Z,18.99
2019-05-03T22:19:55.404Z,18.97
2019-05-03T22:22:21.714Z,18.93
2019-05-03T22:24:48.054Z,18.88
2019-05-03T22:27:15.255Z,18.86
2019-05-03T22:29:40.839Z,18.85
2019-05-03T22:32:07.163Z,18.81
2019-05-03T22:34:34.896Z,18.75
2019-05-03T22:36:59.791Z,18.73
2019-05-03T22:39:26.101Z,18.67
2019-05-03T22:41:52.430Z,18.69
2019-05-03T22:44:18.732Z,18.67
2019-05-03T22:46:45.059Z,18.62
2019-05-03T22:49:11.370Z,18.61
2019-05-03T22:51:37.680Z,18.61
2019-05-03T22:54:04.730Z,18.57
2019-05-03T22:56:30.315Z,18.57
2019-05-03T22:58:56.647Z,18.56
2019-05-03T23:01:22.973Z,18.53
2019-05-03T23:03:49.271Z,18.45
2019-05-03T23:06:22.131Z,18.38
2019-05-03T23:08:41.907Z,18.33
2019-05-03T23:11:08.252Z,18.35
2019-05-03T23:13:34.577Z,18.31
2019-05-03T23:16:00.886Z,18.23
2019-05-03T23:18:27.205Z,18.16
2019-05-03T23:20:55.185Z,18.15
2019-05-03T23:23:19.841Z,18.18
2019-05-03T23:25:46.149Z,18.17
2019-05-03T23:28:14.416Z,18.13
2019-05-03T23:30:38.804Z,18.11
2019-05-03T23:33:05.109Z,18.16
2019-05-03T23:35:31.434Z,18.14
2019-05-03T23:37:57.743Z,18.13
2019-05-03T23:40:25.405Z,18.16
2019-05-03T23:42:50.386Z,18.16
2019-05-03T23:45:16.718Z,18.15
2019-05-03T23:47:44.881Z,18.14
2019-05-03T23:50:09.371Z,18.12
2019-05-03T23:52:35.719Z,18.04
2019-05-03T23:55:02.056Z,18.07
2019-05-03T23:57:28.339Z,18.06
2019-05-03T23:59:56.808Z,18.02
